sensor_id;sensor_type;location;lat;lon;timestamp;pressure;altitude;pressure_sealevel;temperature;humidity
20987;BME280;10652;50.306;8.570;2022-09-16T00:01:46;97405.75;;;14.30;81.80
20987;BME280;10652;50.306;8.570;2022-09-16T00:05:50;97409.41;;;14.27;81.74
20987;BME280;10652;50.306;8.570;2022-09-16T00:09:53;97413.19;;;14.23;82.30
20987;BME280;10652;50.306;8.570;2022-09-16T00:13:55;97407.34;;;14.18;82.23
20987;BME280;10652;50.306;8.570;2022-09-16T00:17:57;97399.75;;;14.13;82.41
20987;BME280;10652;50.306;8.570;2022-09-16T00:22:00;97404.28;;;14.11;82.85
20987;BME280;10652;50.306;8.570;2022-09-16T00:26:03;97407.94;;;14.09;82.77
20987;BME280;10652;50.306;8.570;2022-09-16T00:30:05;97408.78;;;14.09;82.67
20987;BME280;10652;50.306;8.570;2022-09-16T00:34:07;97408.06;;;14.07;82.10
20987;BME280;10652;50.306;8.570;2022-09-16T00:38:10;97398.97;;;13.99;81.85
20987;BME280;10652;50.306;8.570;2022-09-16T00:42:12;97410.50;;;13.96;82.61
20987;BME280;10652;50.306;8.570;2022-09-16T00:46:14;97403.75;;;13.92;82.30
20987;BME280;10652;50.306;8.570;2022-09-16T00:50:40;97400.75;;;13.84;82.43
20987;BME280;10652;50.306;8.570;2022-09-16T00:54:42;97411.47;;;13.81;82.79
20987;BME280;10652;50.306;8.570;2022-09-16T00:58:47;97409.97;;;13.77;82.85
20987;BME280;10652;50.306;8.570;2022-09-16T01:02:51;97398.78;;;13.73;82.93
20987;BME280;10652;50.306;8.570;2022-09-16T01:06:53;97397.94;;;13.73;83.23
20987;BME280;10652;50.306;8.570;2022-09-16T01:10:55;97401.69;;;13.69;82.90
20987;BME280;10652;50.306;8.570;2022-09-16T01:14:58;97403.59;;;13.67;82.67
20987;BME280;10652;50.306;8.570;2022-09-16T01:19:12;97401.06;;;13.65;82.98
20987;BME280;10652;50.306;8.570;2022-09-16T01:27:52;97407.31;;;13.63;83.20
20987;BME280;10652;50.306;8.570;2022-09-16T01:32:13;97400.19;;;13.65;83.57
20987;BME280;10652;50.306;8.570;2022-09-16T01:36:23;97408.84;;;13.67;83.80
20987;BME280;10652;50.306;8.570;2022-09-16T01:40:56;97391.19;;;13.69;83.53
20987;BME280;10652;50.306;8.570;2022-09-16T01:45:07;97394.56;;;13.71;83.80
20987;BME280;10652;50.306;8.570;2022-09-16T01:49:21;97384.78;;;13.73;83.80
20987;BME280;10652;50.306;8.570;2022-09-16T01:53:44;97395.13;;;13.76;83.52
20987;BME280;10652;50.306;8.570;2022-09-16T01:57:50;97395.94;;;13.76;83.45
20987;BME280;10652;50.306;8.570;2022-09-16T02:02:00;97390.59;;;13.78;83.86
20987;BME280;10652;50.306;8.570;2022-09-16T02:06:09;97386.00;;;13.81;83.60
20987;BME280;10652;50.306;8.570;2022-09-16T02:10:44;97386.84;;;13.82;83.50
20987;BME280;10652;50.306;8.570;2022-09-16T02:14:51;97380.94;;;13.78;83.54
20987;BME280;10652;50.306;8.570;2022-09-16T02:18:58;97394.44;;;13.72;84.03
20987;BME280;10652;50.306;8.570;2022-09-16T02:23:04;97391.19;;;13.69;84.25
20987;BME280;10652;50.306;8.570;2022-09-16T02:27:12;97391.53;;;13.63;84.43
20987;BME280;10652;50.306;8.570;2022-09-16T02:31:16;97400.41;;;13.62;84.70
20987;BME280;10652;50.306;8.570;2022-09-16T02:35:22;97389.19;;;13.58;84.76
20987;BME280;10652;50.306;8.570;2022-09-16T02:39:28;97388.25;;;13.59;85.05
20987;BME280;10652;50.306;8.570;2022-09-16T02:43:32;97388.91;;;13.63;85.04
20987;BME280;10652;50.306;8.570;2022-09-16T02:47:58;97403.03;;;13.62;85.01
20987;BME280;10652;50.306;8.570;2022-09-16T02:52:24;97393.25;;;13.64;85.76
20987;BME280;10652;50.306;8.570;2022-09-16T02:56:44;97394.75;;;13.68;85.83
20987;BME280;10652;50.306;8.570;2022-09-16T03:00:49;97392.03;;;13.69;86.01
20987;BME280;10652;50.306;8.570;2022-09-16T03:04:51;97391.19;;;13.69;85.90
20987;BME280;10652;50.306;8.570;2022-09-16T03:08:56;97397.38;;;13.68;85.97
20987;BME280;10652;50.306;8.570;2022-09-16T03:13:18;97400.56;;;13.59;85.99
20987;BME280;10652;50.306;8.570;2022-09-16T03:21:54;97394.19;;;13.49;86.84
20987;BME280;10652;50.306;8.570;2022-09-16T03:30:07;97381.78;;;13.36;86.46
20987;BME280;10652;50.306;8.570;2022-09-16T03:34:25;97378.56;;;13.31;86.84
20987;BME280;10652;50.306;8.570;2022-09-16T03:38:31;97366.47;;;13.29;86.82
20987;BME280;10652;50.306;8.570;2022-09-16T03:42:37;97364.03;;;13.26;87.22
20987;BME280;10652;50.306;8.570;2022-09-16T03:46:40;97371.25;;;13.22;87.40
20987;BME280;10652;50.306;8.570;2022-09-16T03:50:42;97361.22;;;13.15;87.59
20987;BME280;10652;50.306;8.570;2022-09-16T03:54:44;97359.00;;;13.07;87.93
20987;BME280;10652;50.306;8.570;2022-09-16T03:58:46;97362.00;;;13.01;87.99
20987;BME280;10652;50.306;8.570;2022-09-16T04:02:48;97365.66;;;12.99;88.37
20987;BME280;10652;50.306;8.570;2022-09-16T04:06:51;97366.69;;;12.96;88.22
20987;BME280;10652;50.306;8.570;2022-09-16T04:10:57;97374.75;;;12.93;88.78
20987;BME280;10652;50.306;8.570;2022-09-16T04:15:00;97374.56;;;12.96;89.53
20987;BME280;10652;50.306;8.570;2022-09-16T04:19:02;97366.78;;;12.95;89.43
20987;BME280;10652;50.306;8.570;2022-09-16T04:23:04;97369.50;;;12.93;90.06
20987;BME280;10652;50.306;8.570;2022-09-16T04:27:06;97375.41;;;12.97;90.19
20987;BME280;10652;50.306;8.570;2022-09-16T04:31:13;97364.44;;;13.04;90.32
20987;BME280;10652;50.306;8.570;2022-09-16T04:35:15;97365.63;;;13.14;90.41
20987;BME280;10652;50.306;8.570;2022-09-16T04:39:20;97377.56;;;13.20;89.45
20987;BME280;10652;50.306;8.570;2022-09-16T04:43:22;97368.72;;;13.21;88.90
20987;BME280;10652;50.306;8.570;2022-09-16T04:47:24;97373.31;;;13.17;89.15
20987;BME280;10652;50.306;8.570;2022-09-16T04:51:27;97376.50;;;13.22;89.57
20987;BME280;10652;50.306;8.570;2022-09-16T04:55:29;97370.78;;;13.16;88.52
20987;BME280;10652;50.306;8.570;2022-09-16T04:59:32;97362.00;;;13.01;88.75
20987;BME280;10652;50.306;8.570;2022-09-16T05:03:34;97365.16;;;12.92;89.30
20987;BME280;10652;50.306;8.570;2022-09-16T05:07:36;97364.78;;;12.84;89.80
20987;BME280;10652;50.306;8.570;2022-09-16T05:11:39;97373.78;;;12.80;90.41
20987;BME280;10652;50.306;8.570;2022-09-16T05:15:41;97369.53;;;12.77;91.10
20987;BME280;10652;50.306;8.570;2022-09-16T05:19:47;97372.09;;;12.79;91.58
20987;BME280;10652;50.306;8.570;2022-09-16T05:23:49;97364.78;;;12.84;92.05
20987;BME280;10652;50.306;8.570;2022-09-16T05:27:51;97362.00;;;13.01;92.32
20987;BME280;10652;50.306;8.570;2022-09-16T05:31:53;97371.25;;;13.22;91.67
20987;BME280;10652;50.306;8.570;2022-09-16T05:36:05;97377.72;;;13.31;90.37
20987;BME280;10652;50.306;8.570;2022-09-16T05:40:08;97370.88;;;13.28;90.08
20987;BME280;10652;50.306;8.570;2022-09-16T05:44:10;97378.00;;;13.26;90.17
20987;BME280;10652;50.306;8.570;2022-09-16T05:48:12;97381.03;;;13.34;91.08
20987;BME280;10652;50.306;8.570;2022-09-16T05:52:14;97378.13;;;13.53;90.78
20987;BME280;10652;50.306;8.570;2022-09-16T05:56:21;97381.78;;;13.79;90.99
20987;BME280;10652;50.306;8.570;2022-09-16T06:00:25;97373.63;;;14.10;89.74
20987;BME280;10652;50.306;8.570;2022-09-16T06:04:27;97376.97;;;14.26;88.44
20987;BME280;10652;50.306;8.570;2022-09-16T06:08:31;97375.47;;;14.22;87.11
20987;BME280;10652;50.306;8.570;2022-09-16T06:12:33;97364.28;;;14.19;86.72
20987;BME280;10652;50.306;8.570;2022-09-16T06:16:35;97370.00;;;14.40;86.44
20987;BME280;10652;50.306;8.570;2022-09-16T06:20:38;97377.03;;;14.66;84.74
20987;BME280;10652;50.306;8.570;2022-09-16T06:24:40;97372.09;;;14.74;84.30
20987;BME280;10652;50.306;8.570;2022-09-16T06:28:42;97366.34;;;14.55;83.49
20987;BME280;10652;50.306;8.570;2022-09-16T06:32:45;97366.09;;;14.45;85.61
20987;BME280;10652;50.306;8.570;2022-09-16T06:36:47;97376.09;;;14.40;85.49
20987;BME280;10652;50.306;8.570;2022-09-16T06:40:49;97376.78;;;14.30;85.10
20987;BME280;10652;50.306;8.570;2022-09-16T06:44:51;97376.84;;;14.42;85.26
20987;BME280;10652;50.306;8.570;2022-09-16T06:48:55;97369.00;;;14.55;84.28
20987;BME280;10652;50.306;8.570;2022-09-16T06:53:01;97361.63;;;14.60;82.82
20987;BME280;10652;50.306;8.570;2022-09-16T06:57:03;97366.00;;;14.86;83.46
20987;BME280;10652;50.306;8.570;2022-09-16T07:01:15;97362.56;;;15.11;81.56
20987;BME280;10652;50.306;8.570;2022-09-16T07:05:18;97360.16;;;15.58;76.95
20987;BME280;10652;50.306;8.570;2022-09-16T07:09:20;97357.19;;;15.76;74.57
20987;BME280;10652;50.306;8.570;2022-09-16T07:13:22;97359.66;;;15.53;75.45
20987;BME280;10652;50.306;8.570;2022-09-16T07:17:24;97368.06;;;15.21;75.06
20987;BME280;10652;50.306;8.570;2022-09-16T07:21:28;97371.28;;;14.86;78.96
20987;BME280;10652;50.306;8.570;2022-09-16T07:25:31;97386.03;;;14.49;83.44
20987;BME280;10652;50.306;8.570;2022-09-16T07:29:36;97378.84;;;14.39;86.19
20987;BME280;10652;50.306;8.570;2022-09-16T07:33:40;97384.13;;;14.39;86.84
20987;BME280;10652;50.306;8.570;2022-09-16T07:37:42;97378.34;;;14.46;84.09
20987;BME280;10652;50.306;8.570;2022-09-16T07:41:45;97379.94;;;14.49;82.41
20987;BME280;10652;50.306;8.570;2022-09-16T07:45:56;97373.78;;;14.62;83.95
20987;BME280;10652;50.306;8.570;2022-09-16T07:49:59;97391.06;;;14.66;83.53
20987;BME280;10652;50.306;8.570;2022-09-16T07:54:06;97391.78;;;14.68;83.97
20987;BME280;10652;50.306;8.570;2022-09-16T07:58:08;97386.56;;;14.81;84.82
20987;BME280;10652;50.306;8.570;2022-09-16T08:02:10;97391.66;;;15.09;84.33
20987;BME280;10652;50.306;8.570;2022-09-16T08:06:21;97394.53;;;15.06;81.98
20987;BME280;10652;50.306;8.570;2022-09-16T08:10:23;97388.38;;;14.93;81.94
20987;BME280;10652;50.306;8.570;2022-09-16T08:14:30;97395.44;;;14.93;83.10
20987;BME280;10652;50.306;8.570;2022-09-16T08:18:32;97391.88;;;15.06;82.49
20987;BME280;10652;50.306;8.570;2022-09-16T08:22:34;97383.97;;;15.19;81.94
20987;BME280;10652;50.306;8.570;2022-09-16T08:26:36;97385.91;;;15.30;78.87
20987;BME280;10652;50.306;8.570;2022-09-16T08:30:39;97394.97;;;15.38;77.06
20987;BME280;10652;50.306;8.570;2022-09-16T08:34:41;97394.13;;;15.38;77.61
20987;BME280;10652;50.306;8.570;2022-09-16T08:38:44;97397.53;;;15.40;75.49
20987;BME280;10652;50.306;8.570;2022-09-16T08:43:14;97398.16;;;15.56;74.30
20987;BME280;10652;50.306;8.570;2022-09-16T08:51:29;97402.16;;;15.49;74.03
20987;BME280;10652;50.306;8.570;2022-09-16T08:55:41;97398.50;;;15.51;73.55
20987;BME280;10652;50.306;8.570;2022-09-16T08:59:52;97406.09;;;15.56;72.19
20987;BME280;10652;50.306;8.570;2022-09-16T09:03:55;97403.44;;;15.56;71.36
20987;BME280;10652;50.306;8.570;2022-09-16T09:08:20;97403.22;;;15.59;69.99
20987;BME280;10652;50.306;8.570;2022-09-16T09:25:21;97393.19;;;16.26;67.05
20987;BME280;10652;50.306;8.570;2022-09-16T09:30:01;97390.38;;;16.40;64.27
20987;BME280;10652;50.306;8.570;2022-09-16T09:38:45;97395.16;;;15.86;64.16
20987;BME280;10652;50.306;8.570;2022-09-16T09:47:41;97389.88;;;15.98;63.76
20987;BME280;10652;50.306;8.570;2022-09-16T09:51:48;97383.44;;;16.26;64.05
20987;BME280;10652;50.306;8.570;2022-09-16T09:55:57;97391.88;;;16.68;63.09
20987;BME280;10652;50.306;8.570;2022-09-16T10:00:11;97382.75;;;17.07;63.15
20987;BME280;10652;50.306;8.570;2022-09-16T10:04:15;97384.16;;;17.34;60.61
20987;BME280;10652;50.306;8.570;2022-09-16T10:08:24;97384.00;;;17.36;58.51
20987;BME280;10652;50.306;8.570;2022-09-16T10:12:34;97378.03;;;17.34;59.00
20987;BME280;10652;50.306;8.570;2022-09-16T10:16:36;97379.06;;;17.20;57.88
20987;BME280;10652;50.306;8.570;2022-09-16T10:20:42;97370.25;;;17.09;59.89
20987;BME280;10652;50.306;8.570;2022-09-16T10:24:52;97378.00;;;16.88;58.91
20987;BME280;10652;50.306;8.570;2022-09-16T10:29:12;97387.94;;;16.73;58.90
20987;BME280;10652;50.306;8.570;2022-09-16T10:33:29;97384.50;;;16.60;59.53
20987;BME280;10652;50.306;8.570;2022-09-16T10:37:31;97388.31;;;16.56;59.78
20987;BME280;10652;50.306;8.570;2022-09-16T10:41:40;97379.75;;;16.53;61.13
20987;BME280;10652;50.306;8.570;2022-09-16T10:45:48;97374.69;;;16.62;62.04
20987;BME280;10652;50.306;8.570;2022-09-16T10:49:54;97372.03;;;16.62;61.10
20987;BME280;10652;50.306;8.570;2022-09-16T10:54:02;97361.94;;;16.67;60.59
20987;BME280;10652;50.306;8.570;2022-09-16T11:02:41;97362.00;;;17.35;58.14
20987;BME280;10652;50.306;8.570;2022-09-16T11:11:02;97357.00;;;17.88;55.53
20987;BME280;10652;50.306;8.570;2022-09-16T11:33:23;97378.22;;;17.31;57.72
20987;BME280;10652;50.306;8.570;2022-09-16T11:37:45;97377.00;;;16.78;59.96
20987;BME280;10652;50.306;8.570;2022-09-16T11:41:57;97379.44;;;16.57;63.00
20987;BME280;10652;50.306;8.570;2022-09-16T11:46:19;97374.47;;;16.76;62.64
20987;BME280;10652;50.306;8.570;2022-09-16T11:50:29;97369.41;;;17.08;62.65
20987;BME280;10652;50.306;8.570;2022-09-16T11:54:43;97367.16;;;17.15;61.81
20987;BME280;10652;50.306;8.570;2022-09-16T11:58:56;97371.50;;;17.16;64.37
20987;BME280;10652;50.306;8.570;2022-09-16T12:03:11;97371.38;;;16.82;61.89
20987;BME280;10652;50.306;8.570;2022-09-16T12:07:31;97372.66;;;16.66;61.84
20987;BME280;10652;50.306;8.570;2022-09-16T12:12:04;97364.09;;;16.62;61.33
20987;BME280;10652;50.306;8.570;2022-09-16T12:16:20;97354.25;;;16.64;58.77
20987;BME280;10652;50.306;8.570;2022-09-16T12:20:28;97353.94;;;16.56;58.00
20987;BME280;10652;50.306;8.570;2022-09-16T12:29:01;97346.34;;;16.52;58.54
20987;BME280;10652;50.306;8.570;2022-09-16T12:33:24;97341.03;;;16.64;58.29
20987;BME280;10652;50.306;8.570;2022-09-16T12:37:36;97324.03;;;16.79;55.70
20987;BME280;10652;50.306;8.570;2022-09-16T12:51:04;97334.44;;;17.16;54.25
20987;BME280;10652;50.306;8.570;2022-09-16T13:00:09;97325.34;;;17.64;54.58
20987;BME280;10652;50.306;8.570;2022-09-16T13:04:20;97314.09;;;18.05;53.56
20987;BME280;10652;50.306;8.570;2022-09-16T13:08:29;97316.03;;;18.46;52.92
20987;BME280;10652;50.306;8.570;2022-09-16T13:12:33;97318.25;;;18.94;51.52
20987;BME280;10652;50.306;8.570;2022-09-16T13:16:55;97319.59;;;19.50;47.72
20987;BME280;10652;50.306;8.570;2022-09-16T13:20:58;97313.25;;;19.72;47.17
20987;BME280;10652;50.306;8.570;2022-09-16T13:25:25;97308.13;;;19.80;46.65
20987;BME280;10652;50.306;8.570;2022-09-16T13:29:42;97315.03;;;19.41;46.22
20987;BME280;10652;50.306;8.570;2022-09-16T13:33:47;97312.53;;;19.19;46.37
20987;BME280;10652;50.306;8.570;2022-09-16T13:37:51;97314.94;;;19.22;46.84
20987;BME280;10652;50.306;8.570;2022-09-16T13:41:55;97317.91;;;19.08;47.66
20987;BME280;10652;50.306;8.570;2022-09-16T13:46:06;97316.03;;;18.78;48.46
20987;BME280;10652;50.306;8.570;2022-09-16T13:50:13;97318.47;;;18.38;46.67
20987;BME280;10652;50.306;8.570;2022-09-16T13:54:27;97316.38;;;18.21;46.75
20987;BME280;10652;50.306;8.570;2022-09-16T13:58:36;97317.56;;;18.17;47.44
20987;BME280;10652;50.306;8.570;2022-09-16T14:11:26;97306.84;;;18.18;47.18
20987;BME280;10652;50.306;8.570;2022-09-16T14:15:44;97305.50;;;18.24;47.39
20987;BME280;10652;50.306;8.570;2022-09-16T14:19:50;97300.88;;;18.37;47.15
20987;BME280;10652;50.306;8.570;2022-09-16T14:23:53;97281.38;;;18.38;47.05
20987;BME280;10652;50.306;8.570;2022-09-16T14:32:14;97291.41;;;17.81;49.04
20987;BME280;10652;50.306;8.570;2022-09-16T14:36:37;97298.84;;;17.87;48.93
20987;BME280;10652;50.306;8.570;2022-09-16T14:40:41;97294.22;;;18.11;48.55
20987;BME280;10652;50.306;8.570;2022-09-16T14:44:48;97304.75;;;18.33;46.65
20987;BME280;10652;50.306;8.570;2022-09-16T14:48:51;97351.47;;;17.58;49.62
20987;BME280;10652;50.306;8.570;2022-09-16T14:52:56;97401.91;;;16.75;53.05
20987;BME280;10652;50.306;8.570;2022-09-16T14:57:01;97394.50;;;16.08;60.83
20987;BME280;10652;50.306;8.570;2022-09-16T15:01:08;97393.97;;;15.53;64.67
20987;BME280;10652;50.306;8.570;2022-09-16T15:09:52;97379.13;;;14.61;74.75
20987;BME280;10652;50.306;8.570;2022-09-16T15:13:53;97386.00;;;14.22;75.74
20987;BME280;10652;50.306;8.570;2022-09-16T15:18:07;97387.69;;;14.23;78.08
20987;BME280;10652;50.306;8.570;2022-09-16T15:22:13;97389.53;;;14.50;78.83
20987;BME280;10652;50.306;8.570;2022-09-16T15:26:20;97382.56;;;14.88;78.45
20987;BME280;10652;50.306;8.570;2022-09-16T15:30:25;97375.97;;;15.33;76.75
20987;BME280;10652;50.306;8.570;2022-09-16T15:34:27;97361.31;;;15.54;75.48
20987;BME280;10652;50.306;8.570;2022-09-16T15:38:36;97363.34;;;15.51;72.85
20987;BME280;10652;50.306;8.570;2022-09-16T15:42:59;97373.25;;;15.35;72.19
20987;BME280;10652;50.306;8.570;2022-09-16T15:47:02;97368.78;;;14.97;71.54
20987;BME280;10652;50.306;8.570;2022-09-16T15:51:08;97368.09;;;14.68;73.94
20987;BME280;10652;50.306;8.570;2022-09-16T15:55:11;97361.53;;;14.35;75.28
20987;BME280;10652;50.306;8.570;2022-09-16T16:03:48;97352.00;;;14.05;78.09
20987;BME280;10652;50.306;8.570;2022-09-16T16:07:55;97359.31;;;14.14;78.50
20987;BME280;10652;50.306;8.570;2022-09-16T16:12:14;97351.47;;;14.27;79.20
20987;BME280;10652;50.306;8.570;2022-09-16T16:16:20;97351.75;;;14.37;79.12
20987;BME280;10652;50.306;8.570;2022-09-16T16:20:23;97362.28;;;14.37;78.62
20987;BME280;10652;50.306;8.570;2022-09-16T16:24:26;97351.75;;;14.37;78.77
20987;BME280;10652;50.306;8.570;2022-09-16T16:28:30;97365.00;;;14.35;78.86
20987;BME280;10652;50.306;8.570;2022-09-16T16:32:32;97381.59;;;14.23;79.17
20987;BME280;10652;50.306;8.570;2022-09-16T16:36:35;97378.13;;;14.08;78.45
20987;BME280;10652;50.306;8.570;2022-09-16T16:40:37;97370.81;;;13.99;78.67
20987;BME280;10652;50.306;8.570;2022-09-16T16:44:40;97358.44;;;13.87;78.82
20987;BME280;10652;50.306;8.570;2022-09-16T16:48:43;97356.59;;;13.75;79.09
20987;BME280;10652;50.306;8.570;2022-09-16T16:52:49;97359.97;;;13.63;79.44
20987;BME280;10652;50.306;8.570;2022-09-16T16:56:51;97353.06;;;13.48;79.81
20987;BME280;10652;50.306;8.570;2022-09-16T17:00:54;97364.31;;;13.35;80.66
20987;BME280;10652;50.306;8.570;2022-09-16T17:04:56;97360.06;;;13.19;80.83
20987;BME280;10652;50.306;8.570;2022-09-16T17:08:58;97361.63;;;13.07;80.77
20987;BME280;10652;50.306;8.570;2022-09-16T17:13:00;97367.44;;;12.98;80.72
20987;BME280;10652;50.306;8.570;2022-09-16T17:17:02;97367.41;;;12.84;80.83
20987;BME280;10652;50.306;8.570;2022-09-16T17:21:07;97381.28;;;12.72;80.63
20987;BME280;10652;50.306;8.570;2022-09-16T17:25:09;97382.91;;;12.59;80.21
20987;BME280;10652;50.306;8.570;2022-09-16T17:29:11;97378.63;;;12.42;80.10
20987;BME280;10652;50.306;8.570;2022-09-16T17:33:17;97395.75;;;12.33;80.84
20987;BME280;10652;50.306;8.570;2022-09-16T17:37:19;97401.31;;;12.27;81.02
20987;BME280;10652;50.306;8.570;2022-09-16T17:41:21;97400.19;;;12.17;81.52
20987;BME280;10652;50.306;8.570;2022-09-16T17:45:23;97404.13;;;12.09;81.70
20987;BME280;10652;50.306;8.570;2022-09-16T17:49:25;97404.56;;;12.01;82.42
20987;BME280;10652;50.306;8.570;2022-09-16T17:53:28;97408.59;;;11.91;83.05
20987;BME280;10652;50.306;8.570;2022-09-16T17:57:30;97399.66;;;11.79;83.78
20987;BME280;10652;50.306;8.570;2022-09-16T18:01:34;97391.38;;;11.70;84.38
20987;BME280;10652;50.306;8.570;2022-09-16T18:05:37;97404.81;;;11.64;85.21
20987;BME280;10652;50.306;8.570;2022-09-16T18:09:39;97404.16;;;11.60;85.88
20987;BME280;10652;50.306;8.570;2022-09-16T18:13:42;97412.09;;;11.58;86.56
20987;BME280;10652;50.306;8.570;2022-09-16T18:17:44;97410.56;;;11.54;87.02
20987;BME280;10652;50.306;8.570;2022-09-16T18:21:46;97426.47;;;11.51;87.75
20987;BME280;10652;50.306;8.570;2022-09-16T18:25:48;97413.41;;;11.50;88.04
20987;BME280;10652;50.306;8.570;2022-09-16T18:29:50;97424.00;;;11.48;88.35
20987;BME280;10652;50.306;8.570;2022-09-16T18:33:53;97422.38;;;11.46;88.80
20987;BME280;10652;50.306;8.570;2022-09-16T18:37:55;97429.50;;;11.44;88.79
20987;BME280;10652;50.306;8.570;2022-09-16T18:41:58;97431.50;;;11.39;89.30
20987;BME280;10652;50.306;8.570;2022-09-16T18:46:20;97442.97;;;11.36;90.13
20987;BME280;10652;50.306;8.570;2022-09-16T18:50:27;97450.09;;;11.34;90.17
20987;BME280;10652;50.306;8.570;2022-09-16T18:54:29;97442.38;;;11.31;90.46
20987;BME280;10652;50.306;8.570;2022-09-16T18:58:32;97452.78;;;11.33;90.93
20987;BME280;10652;50.306;8.570;2022-09-16T19:02:34;97459.03;;;11.30;90.88
20987;BME280;10652;50.306;8.570;2022-09-16T19:06:41;97458.19;;;11.30;91.46
20987;BME280;10652;50.306;8.570;2022-09-16T19:10:44;97456.56;;;11.27;91.21
20987;BME280;10652;50.306;8.570;2022-09-16T19:14:46;97458.41;;;11.25;91.31
20987;BME280;10652;50.306;8.570;2022-09-16T19:18:50;97455.25;;;11.19;91.52
20987;BME280;10652;50.306;8.570;2022-09-16T19:22:52;97457.19;;;11.15;91.90
20987;BME280;10652;50.306;8.570;2022-09-16T19:26:54;97465.34;;;11.09;91.67
20987;BME280;10652;50.306;8.570;2022-09-16T19:31:04;97463.97;;;11.02;91.76
20987;BME280;10652;50.306;8.570;2022-09-16T19:35:06;97464.44;;;10.93;92.04
20987;BME280;10652;50.306;8.570;2022-09-16T19:39:09;97469.97;;;10.87;92.35
20987;BME280;10652;50.306;8.570;2022-09-16T19:43:11;97478.06;;;10.82;92.80
20987;BME280;10652;50.306;8.570;2022-09-16T19:47:14;97480.13;;;10.76;92.67
20987;BME280;10652;50.306;8.570;2022-09-16T19:51:18;97482.88;;;10.73;93.35
20987;BME280;10652;50.306;8.570;2022-09-16T19:55:20;97477.00;;;10.67;93.52
20987;BME280;10652;50.306;8.570;2022-09-16T19:59:22;97483.34;;;10.63;93.63
20987;BME280;10652;50.306;8.570;2022-09-16T20:03:24;97469.59;;;10.58;93.98
20987;BME280;10652;50.306;8.570;2022-09-16T20:07:29;97487.19;;;10.56;93.89
20987;BME280;10652;50.306;8.570;2022-09-16T20:11:34;97475.00;;;10.55;94.63
20987;BME280;10652;50.306;8.570;2022-09-16T20:15:36;97489.41;;;10.64;94.94
20987;BME280;10652;50.306;8.570;2022-09-16T20:19:38;97497.38;;;10.80;94.78
20987;BME280;10652;50.306;8.570;2022-09-16T20:23:40;97500.19;;;10.94;93.79
20987;BME280;10652;50.306;8.570;2022-09-16T20:27:42;97488.31;;;11.04;92.41
20987;BME280;10652;50.306;8.570;2022-09-16T20:31:46;97489.09;;;11.06;91.53
20987;BME280;10652;50.306;8.570;2022-09-16T20:35:48;97489.72;;;11.11;91.01
20987;BME280;10652;50.306;8.570;2022-09-16T20:39:50;97503.44;;;11.16;90.92
20987;BME280;10652;50.306;8.570;2022-09-16T20:43:52;97493.56;;;11.21;90.70
20987;BME280;10652;50.306;8.570;2022-09-16T20:47:54;97499.72;;;11.20;89.77
20987;BME280;10652;50.306;8.570;2022-09-16T20:51:56;97494.19;;;11.26;89.84
20987;BME280;10652;50.306;8.570;2022-09-16T20:56:00;97487.25;;;11.25;89.20
20987;BME280;10652;50.306;8.570;2022-09-16T21:00:03;97476.56;;;11.12;89.17
20987;BME280;10652;50.306;8.570;2022-09-16T21:04:09;97479.69;;;11.02;89.62
20987;BME280;10652;50.306;8.570;2022-09-16T21:08:11;97483.00;;;10.88;90.40
20987;BME280;10652;50.306;8.570;2022-09-16T21:12:13;97481.91;;;10.75;92.30
20987;BME280;10652;50.306;8.570;2022-09-16T21:16:17;97480.59;;;10.66;93.24
20987;BME280;10652;50.306;8.570;2022-09-16T21:20:19;97479.09;;;10.61;94.25
20987;BME280;10652;50.306;8.570;2022-09-16T21:24:22;97483.50;;;10.60;95.23
20987;BME280;10652;50.306;8.570;2022-09-16T21:28:24;97472.63;;;10.68;95.91
20987;BME280;10652;50.306;8.570;2022-09-16T21:32:26;97480.72;;;10.63;96.24
20987;BME280;10652;50.306;8.570;2022-09-16T21:36:28;97475.91;;;10.54;96.21
20987;BME280;10652;50.306;8.570;2022-09-16T21:40:31;97484.00;;;10.50;97.34
20987;BME280;10652;50.306;8.570;2022-09-16T21:44:38;97491.16;;;10.46;98.66
20987;BME280;10652;50.306;8.570;2022-09-16T21:48:40;97483.22;;;10.48;98.66
20987;BME280;10652;50.306;8.570;2022-09-16T21:52:45;97484.09;;;10.48;97.99
20987;BME280;10652;50.306;8.570;2022-09-16T21:56:48;97491.38;;;10.42;98.32
20987;BME280;10652;50.306;8.570;2022-09-16T22:00:50;97491.72;;;10.34;98.26
20987;BME280;10652;50.306;8.570;2022-09-16T22:04:53;97488.63;;;10.26;98.65
20987;BME280;10652;50.306;8.570;2022-09-16T22:08:56;97494.94;;;10.22;98.89
20987;BME280;10652;50.306;8.570;2022-09-16T22:12:59;97503.06;;;10.16;99.28
20987;BME280;10652;50.306;8.570;2022-09-16T22:17:01;97509.13;;;10.16;99.99
20987;BME280;10652;50.306;8.570;2022-09-16T22:21:07;97503.06;;;10.16;100.00
20987;BME280;10652;50.306;8.570;2022-09-16T22:25:09;97512.53;;;10.18;100.00
20987;BME280;10652;50.306;8.570;2022-09-16T22:29:11;97507.88;;;10.25;100.00
20987;BME280;10652;50.306;8.570;2022-09-16T22:33:13;97502.22;;;10.34;100.00
20987;BME280;10652;50.306;8.570;2022-09-16T22:37:15;97503.75;;;10.38;100.00
20987;BME280;10652;50.306;8.570;2022-09-16T22:41:18;97494.19;;;10.37;99.61
20987;BME280;10652;50.306;8.570;2022-09-16T22:45:20;97492.81;;;10.30;99.59
20987;BME280;10652;50.306;8.570;2022-09-16T22:49:22;97496.53;;;10.24;99.91
20987;BME280;10652;50.306;8.570;2022-09-16T22:53:25;97487.78;;;10.25;100.00
20987;BME280;10652;50.306;8.570;2022-09-16T22:57:28;97494.41;;;10.33;100.00
20987;BME280;10652;50.306;8.570;2022-09-16T23:01:36;97484.53;;;10.39;99.99
20987;BME280;10652;50.306;8.570;2022-09-16T23:05:39;97489.75;;;10.39;98.80
20987;BME280;10652;50.306;8.570;2022-09-16T23:09:41;97496.06;;;10.35;98.63
20987;BME280;10652;50.306;8.570;2022-09-16T23:13:43;97494.34;;;10.34;98.72
20987;BME280;10652;50.306;8.570;2022-09-16T23:17:46;97489.88;;;10.36;98.84
20987;BME280;10652;50.306;8.570;2022-09-16T23:21:48;97488.53;;;10.27;98.72
20987;BME280;10652;50.306;8.570;2022-09-16T23:25:50;97489.91;;;10.17;100.00
20987;BME280;10652;50.306;8.570;2022-09-16T23:29:52;97491.84;;;10.12;100.00